createdAt,value
2023-01-17T00:04:53.813Z,12.53
2023-01-17T00:09:55.906Z,12.27
2023-01-17T00:14:58.432Z,16.90
2023-01-17T00:20:00.311Z,14.43
2023-01-17T00:25:02.188Z,13.57
2023-01-17T00:30:06.340Z,14.93
2023-01-17T00:35:08.646Z,14.25
2023-01-17T00:40:11.085Z,16.35
2023-01-17T00:45:12.952Z,13.27
2023-01-17T00:50:15.786Z,13.70
2023-01-17T00:55:17.676Z,14.27
2023-01-17T01:00:19.680Z,16.00
2023-01-17T01:05:21.691Z,14.75
2023-01-17T01:10:23.641Z,16.37
2023-01-17T01:15:25.526Z,14.30
2023-01-17T01:20:27.421Z,14.90
2023-01-17T01:25:29.502Z,17.77
2023-01-17T01:30:31.377Z,11.68
2023-01-17T01:35:33.269Z,12.57
2023-01-17T01:40:35.124Z,12.37
2023-01-17T01:45:37.076Z,16.90
2023-01-17T01:50:39.105Z,17.05
2023-01-17T01:55:41.184Z,12.98
2023-01-17T02:00:43.158Z,18.55
2023-01-17T02:05:45.135Z,21.95
2023-01-17T02:10:47.207Z,18.80
2023-01-17T02:16:03.800Z,19.13
2023-01-17T02:21:20.781Z,18.17
2023-01-17T02:26:37.605Z,18.85
2023-01-17T02:31:54.387Z,21.63
2023-01-17T02:37:01.236Z,16.95
2023-01-17T02:42:14.139Z,18.00
2023-01-17T02:47:23.771Z,20.02
2023-01-17T02:53:00.298Z,18.85
2023-01-17T02:58:35.342Z,17.33
2023-01-17T03:03:52.316Z,17.30
2023-01-17T03:08:54.174Z,18.80
2023-01-17T03:13:57.109Z,19.17
2023-01-17T03:18:59.069Z,21.15
2023-01-17T03:24:01.031Z,19.83
2023-01-17T03:29:02.886Z,14.53
2023-01-17T03:34:04.717Z,20.13
2023-01-17T03:39:06.725Z,22.13
2023-01-17T03:44:08.672Z,15.70
2023-01-17T03:49:10.593Z,16.42
2023-01-17T03:54:12.547Z,20.00
2023-01-17T03:59:14.576Z,12.07
2023-01-17T04:04:16.406Z,19.75
2023-01-17T04:09:19.745Z,19.97
2023-01-17T04:14:22.050Z,18.90
2023-01-17T04:19:24.011Z,18.20
2023-01-17T04:24:26.117Z,18.97
2023-01-17T04:29:28.014Z,17.23
2023-01-17T04:34:30.006Z,16.83
2023-01-17T04:39:31.949Z,20.57
2023-01-17T04:44:33.771Z,14.90
2023-01-17T04:49:35.634Z,20.17
2023-01-17T04:54:37.721Z,18.40
2023-01-17T04:59:39.602Z,21.67
2023-01-17T05:04:41.543Z,13.73
2023-01-17T05:09:43.403Z,21.53
2023-01-17T05:14:45.292Z,22.80
2023-01-17T05:19:47.104Z,24.90
2023-01-17T05:24:49.036Z,23.30
2023-01-17T05:29:50.930Z,24.07
2023-01-17T05:34:54.089Z,22.40
2023-01-17T05:39:55.990Z,19.17
2023-01-17T05:44:57.748Z,23.07
2023-01-17T05:49:59.638Z,16.83
2023-01-17T05:55:01.468Z,19.43
2023-01-17T06:00:03.600Z,18.30
2023-01-17T06:10:08.148Z,18.33
2023-01-17T06:15:10.488Z,20.85
2023-01-17T06:20:12.460Z,20.95
2023-01-17T06:25:14.489Z,22.70
2023-01-17T06:30:16.500Z,24.50
2023-01-17T06:35:18.310Z,21.43
2023-01-17T06:40:20.137Z,22.90
2023-01-17T06:45:21.925Z,20.23
2023-01-17T06:50:23.779Z,21.43
2023-01-17T06:55:26.512Z,19.10
2023-01-17T07:05:31.279Z,27.27
2023-01-17T07:10:33.147Z,21.27
2023-01-17T07:15:34.995Z,15.73
2023-01-17T07:20:36.825Z,19.63
2023-01-17T07:25:38.764Z,23.50
2023-01-17T07:30:40.573Z,22.97
2023-01-17T07:35:42.441Z,19.10
2023-01-17T07:40:44.719Z,21.53
2023-01-17T07:45:50.031Z,22.27
2023-01-17T07:50:53.296Z,23.35
2023-01-17T07:55:55.373Z,23.45
2023-01-17T08:01:07.769Z,20.00
2023-01-17T08:06:18.968Z,25.43
2023-01-17T08:11:20.790Z,25.63
2023-01-17T08:16:22.911Z,21.10
2023-01-17T08:21:24.763Z,27.52
2023-01-17T08:26:27.184Z,24.93
2023-01-17T08:31:30.594Z,23.08
2023-01-17T08:36:32.493Z,22.95
2023-01-17T08:41:34.314Z,25.77
2023-01-17T08:46:38.359Z,23.97
2023-01-17T08:51:40.397Z,21.55
2023-01-17T08:56:42.354Z,26.27
2023-01-17T09:01:44.404Z,30.77
2023-01-17T09:06:46.344Z,25.52
2023-01-17T09:11:48.220Z,24.40
2023-01-17T09:16:50.132Z,17.67
2023-01-17T09:21:52.003Z,26.07
2023-01-17T09:26:53.904Z,27.37
2023-01-17T09:31:55.890Z,17.33
2023-01-17T09:36:57.704Z,19.77
2023-01-17T09:42:21.877Z,20.57
2023-01-17T09:47:43.475Z,23.17
2023-01-17T09:52:45.413Z,24.40
2023-01-17T09:58:00.705Z,24.13
2023-01-17T10:03:20.804Z,25.80
2023-01-17T10:08:37.988Z,26.98
2023-01-17T10:13:55.816Z,23.08
2023-01-17T10:19:09.775Z,25.05
2023-01-17T10:24:46.207Z,27.83
2023-01-17T10:29:48.150Z,28.50
2023-01-17T10:34:51.174Z,20.07
2023-01-17T10:39:54.277Z,27.52
2023-01-17T10:45:01.217Z,24.95
2023-01-17T10:50:04.433Z,30.75
2023-01-17T10:55:43.456Z,31.80
2023-01-17T11:00:50.672Z,31.15
2023-01-17T11:06:15.422Z,31.35
2023-01-17T11:11:17.551Z,31.27
2023-01-17T11:16:27.554Z,34.20
2023-01-17T11:21:29.531Z,29.80
2023-01-17T11:26:32.474Z,22.07
2023-01-17T11:31:34.285Z,29.42
2023-01-17T11:36:36.179Z,29.53
2023-01-17T11:41:39.653Z,28.37
2023-01-17T11:46:41.575Z,32.95
2023-01-17T11:51:43.436Z,34.20
2023-01-17T11:56:45.200Z,35.30
2023-01-17T12:02:12.277Z,29.70
2023-01-17T12:07:33.198Z,35.53
2023-01-17T12:12:45.459Z,33.33
2023-01-17T12:18:02.043Z,37.43
2023-01-17T12:23:07.878Z,36.38
2023-01-17T12:28:41.795Z,35.03
2023-01-17T12:34:07.111Z,32.80
2023-01-17T12:39:10.395Z,30.23
2023-01-17T12:44:13.949Z,35.92
2023-01-17T12:49:28.068Z,28.88
2023-01-17T12:54:32.001Z,32.67
2023-01-17T12:59:46.387Z,34.83
2023-01-17T13:04:58.786Z,31.52
2023-01-17T13:10:04.380Z,27.42
2023-01-17T13:15:14.122Z,27.30
2023-01-17T13:20:22.139Z,28.00
2023-01-17T13:25:38.951Z,26.00
2023-01-17T13:31:09.245Z,25.65
2023-01-17T13:36:11.115Z,30.92
2023-01-17T13:41:16.696Z,21.87
2023-01-17T13:46:18.749Z,26.10
2023-01-17T13:51:20.584Z,15.43
2023-01-17T13:56:22.374Z,17.93
2023-01-17T14:01:24.189Z,27.40
2023-01-17T14:06:28.590Z,29.63
2023-01-17T14:11:34.209Z,25.98
2023-01-17T14:16:36.019Z,23.48
2023-01-17T14:21:37.842Z,20.93
2023-01-17T14:26:58.027Z,24.23
2023-01-17T14:32:01.630Z,23.70
2023-01-17T14:37:23.029Z,20.88
2023-01-17T14:42:29.703Z,23.27
2023-01-17T14:47:33.829Z,23.55
2023-01-17T14:52:35.660Z,23.98
2023-01-17T14:57:37.530Z,22.77
2023-01-17T15:02:45.815Z,16.20
2023-01-17T15:07:55.581Z,27.30
2023-01-17T15:12:58.337Z,22.42
2023-01-17T15:23:33.061Z,24.95
2023-01-17T15:28:35.169Z,25.33
2023-01-17T15:33:39.332Z,22.15
2023-01-17T15:38:45.632Z,21.90
2023-01-17T15:43:47.498Z,24.13
2023-01-17T15:48:49.285Z,23.30
2023-01-17T15:53:51.160Z,24.35
2023-01-17T15:58:53.141Z,15.37
2023-01-17T16:03:55.171Z,22.00
2023-01-17T16:08:57.061Z,24.67
2023-01-17T16:13:58.996Z,18.17
2023-01-17T16:19:01.001Z,19.90
2023-01-17T16:24:02.934Z,21.67
2023-01-17T16:29:04.842Z,18.07
2023-01-17T16:34:12.828Z,23.87
2023-01-17T16:39:14.584Z,20.25
2023-01-17T16:44:16.457Z,23.23
2023-01-17T16:49:18.323Z,20.83
2023-01-17T16:54:20.185Z,21.70
2023-01-17T16:59:22.114Z,26.13
2023-01-17T17:04:24.025Z,22.80
2023-01-17T17:09:25.910Z,25.20
2023-01-17T17:14:28.051Z,28.20
2023-01-17T17:19:30.024Z,24.55
2023-01-17T17:24:32.032Z,25.47
2023-01-17T17:29:33.886Z,28.00
2023-01-17T17:34:36.056Z,33.17
2023-01-17T17:39:38.432Z,29.30
2023-01-17T17:49:43.107Z,31.55
2023-01-17T17:59:46.659Z,29.65
2023-01-17T18:04:48.608Z,29.03
2023-01-17T18:09:50.635Z,36.10
2023-01-17T18:14:52.511Z,30.70
2023-01-17T18:19:54.380Z,35.37
2023-01-17T18:24:56.190Z,16.60
2023-01-17T18:30:00.085Z,32.17
2023-01-17T18:35:02.087Z,35.10
2023-01-17T18:40:04.813Z,29.05
2023-01-17T18:45:07.099Z,29.73
2023-01-17T18:50:09.559Z,33.17
2023-01-17T18:55:11.416Z,30.60
2023-01-17T19:00:15.062Z,32.60
2023-01-17T19:05:17.073Z,33.13
2023-01-17T19:10:19.053Z,32.77
2023-01-17T19:15:20.996Z,35.50
2023-01-17T19:20:22.905Z,30.53
2023-01-17T19:25:24.859Z,33.07
2023-01-17T19:30:26.726Z,29.13
2023-01-17T19:35:28.632Z,22.40
2023-01-17T19:40:30.870Z,29.35
2023-01-17T19:45:33.066Z,27.70
2023-01-17T19:50:35.014Z,28.67
2023-01-17T19:55:39.552Z,30.53
2023-01-17T20:00:46.470Z,30.92
2023-01-17T20:05:56.179Z,33.78
2023-01-17T20:11:04.987Z,35.60
2023-01-17T20:16:08.252Z,33.75
2023-01-17T20:21:17.952Z,34.15
2023-01-17T20:26:26.657Z,33.97
2023-01-17T20:31:28.574Z,33.90
2023-01-17T20:36:30.600Z,31.50
2023-01-17T20:41:37.154Z,32.17
2023-01-17T20:46:40.704Z,30.92
2023-01-17T20:51:43.444Z,27.33
2023-01-17T20:56:45.443Z,31.73
2023-01-17T21:01:47.815Z,30.30
2023-01-17T21:06:49.864Z,28.45
2023-01-17T21:11:51.794Z,30.83
2023-01-17T21:16:53.770Z,32.60
2023-01-17T21:21:55.729Z,33.17
2023-01-17T21:26:57.628Z,31.80
2023-01-17T21:31:59.614Z,31.83
2023-01-17T21:37:01.515Z,33.90
2023-01-17T21:42:03.625Z,28.07
2023-01-17T21:47:05.556Z,23.83
2023-01-17T21:52:07.467Z,23.43
2023-01-17T21:57:09.759Z,27.30
2023-01-17T22:02:11.675Z,27.33
2023-01-17T22:07:13.615Z,23.20
2023-01-17T22:12:15.513Z,29.73
2023-01-17T22:17:17.375Z,30.53
2023-01-17T22:22:19.597Z,31.53
2023-01-17T22:27:21.501Z,30.33
2023-01-17T22:32:23.393Z,28.20
2023-01-17T22:37:25.285Z,30.70
2023-01-17T22:42:27.191Z,30.47
2023-01-17T22:47:29.198Z,27.77
2023-01-17T22:52:31.347Z,27.63
2023-01-17T22:57:33.347Z,33.60
2023-01-17T23:02:35.334Z,27.60
2023-01-17T23:07:37.478Z,31.13
2023-01-17T23:12:39.731Z,31.98
2023-01-17T23:17:41.553Z,33.40
2023-01-17T23:22:43.566Z,30.27
2023-01-17T23:27:46.226Z,39.22
2023-01-17T23:37:50.739Z,35.33
2023-01-17T23:42:52.662Z,29.20
2023-01-17T23:47:54.580Z,28.10
2023-01-17T23:52:56.893Z,35.33
2023-01-17T23:57:58.929Z,34.63
